Wetterdaten: Woche 03.06.13 - 09.06.13 (KW23)
Datum Zeit Temp. Aussen +5cm Feuchte Auss Luftdruck Regen Sonnenschein Regendauer UV Solar Windben
03.06.2013 00:00 10,8 C 8,8 C 71 % 1027,4 hPa 0,0 l/m 0,00 h 0,00 h 0,0 UV-I 0 W/m 0,4 km/h (0 Bft)
03.06.2013 01:00 9,6 C 7,7 C 72 % 1027,4 hPa 0,0 l/m 0,00 h 0,00 h 0,0 UV-I 0 W/m 0,3 km/h (0 Bft)
03.06.2013 02:00 8,5 C 6,1 C 75 % 1027,5 hPa 0,0 l/m 0,00 h 0,00 h 0,0 UV-I 0 W/m 0,2 km/h (0 Bft)
03.06.2013 03:00 7,4 C 4,8 C 80 % 1027,7 hPa 0,0 l/m 0,00 h 0,00 h 0,0 UV-I 0 W/m 0,0 km/h (0 Bft)
03.06.2013 04:00 6,3 C 4,1 C 83 % 1027,8 hPa 0,0 l/m 0,00 h 0,00 h 0,0 UV-I 0 W/m 0,0 km/h (0 Bft)
03.06.2013 05:00 5,5 C 3,5 C 87 % 1028,0 hPa 0,0 l/m 0,00 h 0,00 h 0,0 UV-I 10 W/m 0,0 km/h (0 Bft)
03.06.2013 06:00 5,2 C 4,3 C 89 % 1028,3 hPa 0,0 l/m 0,00 h 0,00 h 0,0 UV-I 33 W/m 0,0 km/h (0 Bft)
03.06.2013 07:00 6,3 C 6,8 C 92 % 1028,5 hPa 0,0 l/m 0,00 h 0,00 h 0,0 UV-I 69 W/m 3,2 km/h (1 Bft)
03.06.2013 08:00 7,9 C 8,4 C 91 % 1028,6 hPa 0,0 l/m 0,00 h 0,00 h 0,0 UV-I 134 W/m 10,5 km/h (2 Bft)
03.06.2013 09:00 9,1 C 9,3 C 85 % 1028,8 hPa 0,0 l/m 0,00 h 0,00 h 0,7 UV-I 151 W/m 16,0 km/h (3 Bft)
03.06.2013 10:00 10,0 C 10,4 C 78 % 1028,8 hPa 0,0 l/m 0,03 h 0,00 h 1,0 UV-I 233 W/m 17,2 km/h (3 Bft)
03.06.2013 11:00 11,3 C 12,9 C 74 % 1028,7 hPa 0,0 l/m 0,30 h 0,00 h 2,0 UV-I 425 W/m 17,8 km/h (3 Bft)
03.06.2013 12:00 12,7 C 16,0 C 70 % 1028,4 hPa 0,0 l/m 0,58 h 0,00 h 2,9 UV-I 605 W/m 16,1 km/h (3 Bft)
03.06.2013 13:00 14,5 C 18,8 C 63 % 1027,9 hPa 0,0 l/m 0,87 h 0,00 h 3,1 UV-I 776 W/m 16,3 km/h (3 Bft)
03.06.2013 14:00 15,5 C 17,3 C 61 % 1027,4 hPa 0,0 l/m 0,67 h 0,00 h 4,0 UV-I 731 W/m 18,4 km/h (3 Bft)
03.06.2013 15:00 16,0 C 17,1 C 59 % 1026,9 hPa 0,0 l/m 0,53 h 0,00 h 3,2 UV-I 596 W/m 18,4 km/h (3 Bft)
03.06.2013 16:00 16,5 C 17,3 C 57 % 1026,5 hPa 0,0 l/m 0,70 h 0,00 h 2,3 UV-I 584 W/m 18,0 km/h (3 Bft)
03.06.2013 17:00 16,7 C 16,4 C 56 % 1026,0 hPa 0,0 l/m 0,93 h 0,00 h 1,5 UV-I 524 W/m 20,5 km/h (4 Bft)
03.06.2013 18:00 16,5 C 15,8 C 57 % 1025,6 hPa 0,0 l/m 0,37 h 0,00 h 0,7 UV-I 226 W/m 19,4 km/h (3 Bft)
03.06.2013 19:00 16,1 C 15,0 C 57 % 1025,5 hPa 0,0 l/m 0,00 h 0,00 h 0,0 UV-I 73 W/m 20,7 km/h (4 Bft)
03.06.2013 20:00 15,3 C 14,1 C 59 % 1025,6 hPa 0,0 l/m 0,00 h 0,00 h 0,0 UV-I 43 W/m 17,3 km/h (3 Bft)
03.06.2013 21:00 13,8 C 12,5 C 65 % 1025,9 hPa 0,0 l/m 0,00 h 0,00 h 0,0 UV-I 15 W/m 15,5 km/h (3 Bft)
03.06.2013 22:00 12,6 C 11,1 C 70 % 1026,3 hPa 0,0 l/m 0,00 h 0,00 h 0,0 UV-I 0 W/m 10,5 km/h (2 Bft)
03.06.2013 23:00 11,4 C 9,9 C 74 % 1026,4 hPa 0,0 l/m 0,00 h 0,00 h 0,0 UV-I 0 W/m 8,7 km/h (2 Bft)
04.06.2013 00:00 10,4 C 8,7 C 78 % 1026,4 hPa 0,0 l/m 0,00 h 0,00 h 0,0 UV-I 0 W/m 5,3 km/h (1 Bft)
04.06.2013 01:00 9,3 C 7,5 C 82 % 1026,3 hPa 0,0 l/m 0,00 h 0,00 h 0,0 UV-I 0 W/m 2,2 km/h (1 Bft)
04.06.2013 02:00 8,3 C 6,3 C 85 % 1026,2 hPa 0,0 l/m 0,00 h 0,00 h 0,0 UV-I 0 W/m 0,4 km/h (0 Bft)
04.06.2013 03:00 7,5 C 5,9 C 89 % 1025,7 hPa 0,0 l/m 0,00 h 0,00 h 0,0 UV-I 0 W/m 1,4 km/h (1 Bft)
04.06.2013 04:00 7,2 C 6,5 C 90 % 1025,2 hPa 0,0 l/m 0,00 h 0,00 h 0,0 UV-I 0 W/m 0,0 km/h (0 Bft)
04.06.2013 05:00 7,7 C 7,6 C 91 % 1024,9 hPa 0,0 l/m 0,00 h 0,00 h 0,0 UV-I 8 W/m 1,4 km/h (1 Bft)
04.06.2013 06:00 8,6 C 8,2 C 87 % 1024,7 hPa 0,0 l/m 0,00 h 0,00 h 0,0 UV-I 22 W/m 5,9 km/h (2 Bft)
04.06.2013 07:00 9,1 C 8,6 C 85 % 1024,4 hPa 0,0 l/m 0,00 h 0,00 h 0,0 UV-I 39 W/m 7,2 km/h (2 Bft)
04.06.2013 08:00 9,7 C 9,8 C 85 % 1024,3 hPa 0,0 l/m 0,00 h 0,00 h 0,0 UV-I 140 W/m 5,1 km/h (1 Bft)
04.06.2013 09:00 10,6 C 11,4 C 83 % 1024,3 hPa 0,0 l/m 0,00 h 0,00 h 0,6 UV-I 227 W/m 8,7 km/h (2 Bft)
04.06.2013 10:00 11,6 C 13,3 C 81 % 1024,2 hPa 0,0 l/m 0,23 h 0,00 h 1,4 UV-I 372 W/m 10,1 km/h (2 Bft)
04.06.2013 11:00 13,4 C 18,0 C 78 % 1023,8 hPa 0,0 l/m 0,90 h 0,00 h 3,5 UV-I 742 W/m 13,5 km/h (3 Bft)
04.06.2013 12:00 15,2 C 22,7 C 74 % 1023,4 hPa 0,0 l/m 1,00 h 0,00 h 4,4 UV-I 839 W/m 13,3 km/h (3 Bft)
04.06.2013 13:00 16,6 C 23,1 C 71 % 1022,8 hPa 0,0 l/m 0,80 h 0,00 h 2,9 UV-I 892 W/m 16,4 km/h (3 Bft)
04.06.2013 14:00 17,9 C 20,2 C 67 % 1022,0 hPa 0,0 l/m 0,87 h 0,00 h 4,2 UV-I 796 W/m 14,3 km/h (3 Bft)
04.06.2013 15:00 18,9 C 20,1 C 65 % 1021,5 hPa 0,0 l/m 0,80 h 0,00 h 3,4 UV-I 661 W/m 15,5 km/h (3 Bft)
04.06.2013 16:00 19,8 C 20,2 C 62 % 1020,9 hPa 0,0 l/m 0,83 h 0,00 h 2,6 UV-I 644 W/m 16,0 km/h (3 Bft)
04.06.2013 17:00 20,3 C 20,2 C 60 % 1020,3 hPa 0,0 l/m 0,43 h 0,00 h 1,1 UV-I 350 W/m 15,5 km/h (3 Bft)
04.06.2013 18:00 20,8 C 20,0 C 56 % 1019,6 hPa 0,0 l/m 0,47 h 0,00 h 0,6 UV-I 258 W/m 15,5 km/h (3 Bft)
04.06.2013 19:00 20,9 C 17,4 C 53 % 1019,2 hPa 0,0 l/m 0,00 h 0,07 h 0,0 UV-I 74 W/m 6,6 km/h (2 Bft)
04.06.2013 20:00 20,5 C 17,8 C 53 % 1019,0 hPa 0,0 l/m 0,00 h 0,00 h 0,0 UV-I 57 W/m 4,5 km/h (1 Bft)
04.06.2013 21:00 19,5 C 15,1 C 58 % 1019,1 hPa 0,0 l/m 0,00 h 0,00 h 0,0 UV-I 16 W/m 0,0 km/h (0 Bft)
04.06.2013 22:00 18,3 C 15,2 C 57 % 1019,6 hPa 0,0 l/m 0,00 h 0,00 h 0,0 UV-I 0 W/m 3,5 km/h (1 Bft)
04.06.2013 23:00 16,5 C 12,1 C 60 % 1019,6 hPa 0,0 l/m 0,00 h 0,00 h 0,0 UV-I 0 W/m 0,3 km/h (0 Bft)
05.06.2013 00:00 14,4 C 10,9 C 65 % 1019,4 hPa 0,0 l/m 0,00 h 0,00 h 0,0 UV-I 0 W/m 1,2 km/h (1 Bft)
05.06.2013 01:00 13,5 C 11,3 C 71 % 1019,1 hPa 0,0 l/m 0,00 h 0,00 h 0,0 UV-I 0 W/m 3,0 km/h (1 Bft)
05.06.2013 02:00 12,3 C 9,0 C 76 % 1019,0 hPa 0,0 l/m 0,00 h 0,00 h 0,0 UV-I 0 W/m 0,0 km/h (0 Bft)
05.06.2013 03:00 11,0 C 8,2 C 82 % 1018,9 hPa 0,0 l/m 0,00 h 0,00 h 0,0 UV-I 0 W/m 0,0 km/h (0 Bft)
05.06.2013 04:00 10,1 C 7,6 C 85 % 1018,7 hPa 0,0 l/m 0,00 h 0,00 h 0,0 UV-I 0 W/m 0,0 km/h (0 Bft)
05.06.2013 05:00 9,4 C 7,3 C 88 % 1018,5 hPa 0,0 l/m 0,00 h 0,00 h 0,0 UV-I 11 W/m 0,0 km/h (0 Bft)
05.06.2013 06:00 9,1 C 7,8 C 90 % 1018,6 hPa 0,0 l/m 0,00 h 0,00 h 0,0 UV-I 34 W/m 0,0 km/h (0 Bft)
05.06.2013 07:00 10,2 C 10,2 C 93 % 1018,7 hPa 0,0 l/m 0,13 h 0,00 h 0,0 UV-I 89 W/m 0,1 km/h (0 Bft)
05.06.2013 08:00 12,7 C 12,6 C 91 % 1018,8 hPa 0,0 l/m 1,00 h 0,00 h 0,6 UV-I 348 W/m 0,3 km/h (0 Bft)
05.06.2013 09:00 17,3 C 16,2 C 77 % 1018,8 hPa 0,0 l/m 1,00 h 0,00 h 1,4 UV-I 502 W/m 1,0 km/h (0 Bft)
05.06.2013 10:00 20,6 C 26,7 C 66 % 1018,5 hPa 0,0 l/m 1,00 h 0,00 h 2,5 UV-I 644 W/m 2,2 km/h (1 Bft)
05.06.2013 11:00 21,4 C 26,9 C 63 % 1018,3 hPa 0,0 l/m 1,00 h 0,00 h 3,6 UV-I 755 W/m 5,6 km/h (1 Bft)
05.06.2013 12:00 21,8 C 28,3 C 59 % 1018,0 hPa 0,0 l/m 0,70 h 0,00 h 3,8 UV-I 690 W/m 8,9 km/h (2 Bft)
05.06.2013 13:00 21,8 C 24,0 C 56 % 1017,7 hPa 0,0 l/m 0,20 h 0,00 h 2,2 UV-I 407 W/m 6,7 km/h (2 Bft)
05.06.2013 14:00 22,9 C 24,1 C 53 % 1017,5 hPa 0,0 l/m 0,80 h 0,00 h 3,8 UV-I 795 W/m 8,2 km/h (2 Bft)
05.06.2013 15:00 23,8 C 24,3 C 51 % 1017,2 hPa 0,0 l/m 0,77 h 0,00 h 3,2 UV-I 661 W/m 5,5 km/h (1 Bft)
05.06.2013 16:00 23,7 C 26,2 C 51 % 1017,0 hPa 0,0 l/m 0,83 h 0,00 h 2,4 UV-I 623 W/m 8,0 km/h (2 Bft)
05.06.2013 17:00 23,7 C 23,5 C 50 % 1016,8 hPa 0,0 l/m 0,83 h 0,00 h 1,5 UV-I 484 W/m 7,8 km/h (2 Bft)
05.06.2013 18:00 23,6 C 22,3 C 51 % 1016,6 hPa 0,0 l/m 0,40 h 0,00 h 0,8 UV-I 247 W/m 7,4 km/h (2 Bft)
05.06.2013 19:00 22,9 C 21,3 C 52 % 1016,5 hPa 0,0 l/m 0,00 h 0,00 h 0,0 UV-I 62 W/m 6,9 km/h (2 Bft)
05.06.2013 20:00 22,3 C 20,4 C 55 % 1016,5 hPa 0,0 l/m 0,00 h 0,00 h 0,0 UV-I 37 W/m 7,5 km/h (2 Bft)
05.06.2013 21:00 21,0 C 17,4 C 61 % 1016,7 hPa 0,0 l/m 0,00 h 0,00 h 0,0 UV-I 10 W/m 1,3 km/h (1 Bft)
05.06.2013 22:00 18,7 C 14,5 C 69 % 1017,2 hPa 0,0 l/m 0,00 h 0,00 h 0,0 UV-I 0 W/m 0,0 km/h (0 Bft)
05.06.2013 23:00 16,7 C 13,1 C 76 % 1017,5 hPa 0,0 l/m 0,00 h 0,00 h 0,0 UV-I 0 W/m 0,0 km/h (0 Bft)
06.06.2013 00:00 15,2 C 12,2 C 80 % 1017,7 hPa 0,0 l/m 0,00 h 0,00 h 0,0 UV-I 0 W/m 0,0 km/h (0 Bft)
06.06.2013 01:00 14,2 C 11,6 C 83 % 1018,0 hPa 0,0 l/m 0,00 h 0,00 h 0,0 UV-I 0 W/m 0,0 km/h (0 Bft)
06.06.2013 02:00 13,5 C 11,2 C 85 % 1018,2 hPa 0,0 l/m 0,00 h 0,00 h 0,0 UV-I 0 W/m 0,0 km/h (0 Bft)
06.06.2013 03:00 13,3 C 11,3 C 84 % 1018,3 hPa 0,0 l/m 0,00 h 0,00 h 0,0 UV-I 0 W/m 0,4 km/h (0 Bft)
06.06.2013 04:00 13,9 C 11,9 C 74 % 1018,2 hPa 0,0 l/m 0,00 h 0,00 h 0,0 UV-I 0 W/m 5,5 km/h (1 Bft)
06.06.2013 05:00 14,1 C 11,7 C 70 % 1018,3 hPa 0,0 l/m 0,00 h 0,00 h 0,0 UV-I 11 W/m 3,5 km/h (1 Bft)
06.06.2013 06:00 13,6 C 11,4 C 72 % 1018,5 hPa 0,0 l/m 0,00 h 0,00 h 0,0 UV-I 29 W/m 1,2 km/h (1 Bft)
06.06.2013 07:00 14,0 C 12,5 C 73 % 1018,8 hPa 0,0 l/m 0,17 h 0,00 h 0,0 UV-I 84 W/m 0,3 km/h (0 Bft)
06.06.2013 08:00 16,0 C 14,8 C 68 % 1019,3 hPa 0,0 l/m 1,00 h 0,00 h 0,6 UV-I 358 W/m 7,0 km/h (2 Bft)
06.06.2013 09:00 19,7 C 18,0 C 60 % 1019,4 hPa 0,0 l/m 1,00 h 0,00 h 1,4 UV-I 503 W/m 8,2 km/h (2 Bft)
06.06.2013 10:00 22,3 C 28,3 C 56 % 1019,3 hPa 0,0 l/m 1,00 h 0,00 h 2,5 UV-I 636 W/m 7,0 km/h (2 Bft)
06.06.2013 11:00 23,9 C 30,0 C 54 % 1019,2 hPa 0,0 l/m 1,00 h 0,00 h 3,6 UV-I 743 W/m 5,7 km/h (1 Bft)
06.06.2013 12:00 25,0 C 33,9 C 52 % 1019,1 hPa 0,0 l/m 1,00 h 0,00 h 4,4 UV-I 815 W/m 9,8 km/h (2 Bft)
06.06.2013 13:00 25,3 C 30,6 C 50 % 1019,1 hPa 0,0 l/m 0,80 h 0,00 h 2,9 UV-I 735 W/m 8,4 km/h (2 Bft)
06.06.2013 14:00 25,4 C 25,8 C 47 % 1019,0 hPa 0,0 l/m 0,43 h 0,00 h 3,5 UV-I 526 W/m 6,2 km/h (2 Bft)
06.06.2013 15:00 25,2 C 25,1 C 48 % 1018,8 hPa 0,0 l/m 0,40 h 0,00 h 2,3 UV-I 430 W/m 5,4 km/h (1 Bft)
06.06.2013 16:00 26,5 C 27,0 C 45 % 1018,5 hPa 0,0 l/m 0,77 h 0,00 h 2,6 UV-I 591 W/m 6,8 km/h (2 Bft)
06.06.2013 17:00 24,9 C 23,8 C 47 % 1018,2 hPa 0,0 l/m 0,33 h 0,00 h 1,1 UV-I 258 W/m 5,8 km/h (1 Bft)
06.06.2013 18:00 25,4 C 23,8 C 45 % 1018,0 hPa 0,0 l/m 0,40 h 0,00 h 0,8 UV-I 227 W/m 7,4 km/h (2 Bft)
06.06.2013 19:00 24,9 C 22,8 C 46 % 1018,1 hPa 0,0 l/m 0,00 h 0,00 h 0,0 UV-I 56 W/m 5,8 km/h (2 Bft)
06.06.2013 20:00 24,1 C 21,2 C 48 % 1018,4 hPa 0,0 l/m 0,00 h 0,00 h 0,0 UV-I 33 W/m 3,3 km/h (1 Bft)
06.06.2013 21:00 22,6 C 18,1 C 53 % 1018,7 hPa 0,0 l/m 0,00 h 0,00 h 0,0 UV-I 11 W/m 0,6 km/h (0 Bft)
06.06.2013 22:00 20,3 C 15,5 C 58 % 1019,3 hPa 0,0 l/m 0,00 h 0,00 h 0,0 UV-I 0 W/m 0,0 km/h (0 Bft)
06.06.2013 23:00 18,1 C 14,0 C 64 % 1019,5 hPa 0,0 l/m 0,00 h 0,00 h 0,0 UV-I 0 W/m 0,0 km/h (0 Bft)
07.06.2013 00:00 16,2 C 12,8 C 72 % 1019,6 hPa 0,0 l/m 0,00 h 0,00 h 0,0 UV-I 0 W/m 0,0 km/h (0 Bft)
07.06.2013 01:00 14,8 C 11,9 C 77 % 1019,9 hPa 0,0 l/m 0,00 h 0,00 h 0,0 UV-I 0 W/m 0,0 km/h (0 Bft)
07.06.2013 02:00 13,9 C 11,3 C 80 % 1019,9 hPa 0,0 l/m 0,00 h 0,00 h 0,0 UV-I 0 W/m 0,0 km/h (0 Bft)
07.06.2013 03:00 13,0 C 10,5 C 83 % 1019,9 hPa 0,0 l/m 0,00 h 0,00 h 0,0 UV-I 0 W/m 0,0 km/h (0 Bft)
07.06.2013 04:00 12,0 C 9,7 C 86 % 1019,9 hPa 0,0 l/m 0,00 h 0,00 h 0,0 UV-I 0 W/m 0,0 km/h (0 Bft)
07.06.2013 05:00 11,2 C 9,1 C 88 % 1019,9 hPa 0,0 l/m 0,00 h 0,00 h 0,0 UV-I 10 W/m 0,0 km/h (0 Bft)
07.06.2013 06:00 11,0 C 9,9 C 90 % 1019,9 hPa 0,0 l/m 0,00 h 0,00 h 0,0 UV-I 27 W/m 0,0 km/h (0 Bft)
07.06.2013 07:00 12,6 C 12,7 C 92 % 1019,9 hPa 0,0 l/m 0,17 h 0,00 h 0,0 UV-I 81 W/m 1,0 km/h (0 Bft)
07.06.2013 08:00 15,8 C 15,4 C 83 % 1019,8 hPa 0,0 l/m 1,00 h 0,00 h 0,6 UV-I 359 W/m 1,2 km/h (1 Bft)
07.06.2013 09:00 19,1 C 18,4 C 73 % 1019,9 hPa 0,0 l/m 1,00 h 0,00 h 1,3 UV-I 509 W/m 4,0 km/h (1 Bft)
07.06.2013 10:00 21,4 C 27,1 C 66 % 1019,9 hPa 0,0 l/m 1,00 h 0,00 h 2,3 UV-I 642 W/m 7,9 km/h (2 Bft)
07.06.2013 11:00 22,8 C 28,5 C 63 % 1019,9 hPa 0,0 l/m 1,00 h 0,00 h 3,2 UV-I 732 W/m 8,5 km/h (2 Bft)
07.06.2013 12:00 24,5 C 32,5 C 59 % 1019,7 hPa 0,0 l/m 1,00 h 0,00 h 3,9 UV-I 804 W/m 7,7 km/h (2 Bft)
07.06.2013 13:00 26,0 C 31,7 C 50 % 1019,4 hPa 0,0 l/m 0,87 h 0,00 h 3,0 UV-I 779 W/m 8,6 km/h (2 Bft)
07.06.2013 14:00 26,6 C 27,5 C 48 % 1019,1 hPa 0,0 l/m 0,77 h 0,00 h 3,7 UV-I 755 W/m 9,5 km/h (2 Bft)
07.06.2013 15:00 27,0 C 27,5 C 48 % 1018,7 hPa 0,0 l/m 0,73 h 0,00 h 3,3 UV-I 685 W/m 6,5 km/h (2 Bft)
07.06.2013 16:00 25,9 C 25,9 C 47 % 1018,5 hPa 0,0 l/m 0,23 h 0,00 h 1,4 UV-I 330 W/m 5,8 km/h (2 Bft)
07.06.2013 17:00 26,2 C 25,8 C 46 % 1018,3 hPa 0,0 l/m 0,50 h 0,00 h 1,3 UV-I 383 W/m 5,5 km/h (1 Bft)
07.06.2013 18:00 25,8 C 24,5 C 45 % 1017,9 hPa 0,0 l/m 0,33 h 0,00 h 0,8 UV-I 235 W/m 10,9 km/h (2 Bft)
07.06.2013 19:00 25,2 C 23,7 C 47 % 1017,6 hPa 0,0 l/m 0,00 h 0,00 h 0,0 UV-I 67 W/m 14,6 km/h (3 Bft)
07.06.2013 20:00 24,2 C 22,4 C 50 % 1017,7 hPa 0,0 l/m 0,00 h 0,00 h 0,0 UV-I 39 W/m 10,3 km/h (2 Bft)
07.06.2013 21:00 22,9 C 20,4 C 54 % 1018,0 hPa 0,0 l/m 0,00 h 0,00 h 0,0 UV-I 13 W/m 2,4 km/h (1 Bft)
07.06.2013 22:00 21,2 C 17,3 C 59 % 1018,5 hPa 0,0 l/m 0,00 h 0,00 h 0,0 UV-I 0 W/m 0,2 km/h (0 Bft)
07.06.2013 23:00 19,2 C 16,3 C 65 % 1018,7 hPa 0,0 l/m 0,00 h 0,00 h 0,0 UV-I 0 W/m 4,3 km/h (1 Bft)
08.06.2013 00:00 18,3 C 16,2 C 70 % 1018,8 hPa 0,0 l/m 0,00 h 0,00 h 0,0 UV-I 0 W/m 2,7 km/h (1 Bft)
08.06.2013 01:00 17,3 C 15,6 C 75 % 1018,7 hPa 0,0 l/m 0,00 h 0,00 h 0,0 UV-I 0 W/m 4,2 km/h (1 Bft)
08.06.2013 02:00 16,4 C 14,8 C 76 % 1018,6 hPa 0,0 l/m 0,00 h 0,00 h 0,0 UV-I 0 W/m 5,0 km/h (1 Bft)
08.06.2013 03:00 15,7 C 14,2 C 77 % 1018,4 hPa 0,0 l/m 0,00 h 0,00 h 0,0 UV-I 0 W/m 6,1 km/h (2 Bft)
08.06.2013 04:00 14,7 C 13,1 C 83 % 1018,1 hPa 0,0 l/m 0,00 h 0,00 h 0,0 UV-I 0 W/m 4,5 km/h (1 Bft)
08.06.2013 05:00 13,8 C 12,4 C 88 % 1017,9 hPa 0,0 l/m 0,00 h 0,00 h 0,0 UV-I 11 W/m 6,5 km/h (2 Bft)
08.06.2013 06:00 13,1 C 12,3 C 91 % 1018,0 hPa 0,0 l/m 0,00 h 0,00 h 0,0 UV-I 45 W/m 10,1 km/h (2 Bft)
08.06.2013 07:00 13,1 C 12,6 C 91 % 1018,1 hPa 0,0 l/m 0,17 h 0,00 h 0,0 UV-I 100 W/m 12,1 km/h (2 Bft)
08.06.2013 08:00 13,8 C 13,5 C 88 % 1018,2 hPa 0,0 l/m 0,73 h 0,00 h 0,5 UV-I 270 W/m 13,1 km/h (3 Bft)
08.06.2013 09:00 15,5 C 15,7 C 84 % 1018,2 hPa 0,0 l/m 0,87 h 0,00 h 1,0 UV-I 453 W/m 14,3 km/h (3 Bft)
08.06.2013 10:00 16,6 C 19,3 C 79 % 1018,1 hPa 0,0 l/m 0,60 h 0,00 h 1,7 UV-I 474 W/m 15,7 km/h (3 Bft)
08.06.2013 11:00 18,0 C 22,4 C 77 % 1017,5 hPa 0,0 l/m 1,00 h 0,00 h 3,1 UV-I 715 W/m 16,5 km/h (3 Bft)
08.06.2013 12:00 19,3 C 25,0 C 74 % 1017,0 hPa 0,0 l/m 1,00 h 0,00 h 3,8 UV-I 783 W/m 17,0 km/h (3 Bft)
08.06.2013 13:00 21,0 C 25,4 C 71 % 1016,4 hPa 0,0 l/m 1,00 h 0,00 h 3,1 UV-I 810 W/m 18,2 km/h (3 Bft)
08.06.2013 14:00 22,2 C 23,3 C 67 % 1015,8 hPa 0,0 l/m 1,00 h 0,00 h 4,2 UV-I 795 W/m 19,6 km/h (3 Bft)
08.06.2013 15:00 23,6 C 24,1 C 62 % 1015,1 hPa 0,0 l/m 1,00 h 0,00 h 3,6 UV-I 734 W/m 18,6 km/h (3 Bft)
08.06.2013 16:00 24,3 C 24,9 C 59 % 1014,5 hPa 0,0 l/m 1,00 h 0,00 h 2,6 UV-I 642 W/m 20,4 km/h (4 Bft)
08.06.2013 17:00 24,4 C 24,2 C 57 % 1014,0 hPa 0,0 l/m 0,90 h 0,00 h 1,4 UV-I 486 W/m 19,7 km/h (3 Bft)
08.06.2013 18:00 23,8 C 22,9 C 58 % 1013,3 hPa 0,0 l/m 0,43 h 0,00 h 0,7 UV-I 234 W/m 21,0 km/h (4 Bft)
08.06.2013 19:00 23,1 C 22,1 C 59 % 1013,1 hPa 0,0 l/m 0,00 h 0,00 h 0,0 UV-I 88 W/m 19,9 km/h (4 Bft)
08.06.2013 20:00 22,1 C 20,8 C 61 % 1013,2 hPa 0,0 l/m 0,00 h 0,00 h 0,0 UV-I 54 W/m 18,4 km/h (3 Bft)
08.06.2013 21:00 20,7 C 18,9 C 65 % 1013,3 hPa 0,0 l/m 0,00 h 0,00 h 0,0 UV-I 15 W/m 14,5 km/h (3 Bft)
08.06.2013 22:00 18,8 C 17,2 C 69 % 1013,5 hPa 0,0 l/m 0,00 h 0,00 h 0,0 UV-I 0 W/m 15,2 km/h (3 Bft)
08.06.2013 23:00 17,2 C 15,7 C 71 % 1013,6 hPa 0,0 l/m 0,00 h 0,00 h 0,0 UV-I 0 W/m 17,3 km/h (3 Bft)
09.06.2013 00:00 15,8 C 14,7 C 74 % 1013,6 hPa 0,0 l/m 0,00 h 0,00 h 0,0 UV-I 0 W/m 15,7 km/h (3 Bft)
09.06.2013 01:00 14,8 C 13,6 C 77 % 1013,4 hPa 0,0 l/m 0,00 h 0,00 h 0,0 UV-I 0 W/m 15,5 km/h (3 Bft)
09.06.2013 02:00 13,9 C 13,0 C 79 % 1013,2 hPa 0,0 l/m 0,00 h 0,00 h 0,0 UV-I 0 W/m 17,6 km/h (3 Bft)
09.06.2013 03:00 13,1 C 12,1 C 82 % 1013,2 hPa 0,0 l/m 0,00 h 0,10 h 0,0 UV-I 0 W/m 14,0 km/h (3 Bft)
09.06.2013 04:00 12,1 C 11,0 C 88 % 1012,8 hPa 0,0 l/m 0,00 h 0,30 h 0,0 UV-I 0 W/m 12,9 km/h (3 Bft)
09.06.2013 05:00 11,1 C 10,4 C 92 % 1012,7 hPa 0,0 l/m 0,00 h 0,03 h 0,0 UV-I 5 W/m 14,0 km/h (3 Bft)
09.06.2013 06:00 10,8 C 10,0 C 93 % 1012,4 hPa 0,0 l/m 0,00 h 0,47 h 0,0 UV-I 8 W/m 15,8 km/h (3 Bft)
09.06.2013 07:00 10,5 C 9,6 C 95 % 1012,4 hPa 0,2 l/m 0,00 h 0,53 h 0,0 UV-I 34 W/m 12,8 km/h (3 Bft)
09.06.2013 08:00 10,9 C 10,3 C 95 % 1012,5 hPa 0,0 l/m 0,00 h 0,00 h 0,0 UV-I 118 W/m 14,6 km/h (3 Bft)
09.06.2013 09:00 11,9 C 12,3 C 90 % 1012,2 hPa 0,0 l/m 0,10 h 0,00 h 0,0 UV-I 213 W/m 17,0 km/h (3 Bft)
09.06.2013 10:00 12,8 C 13,2 C 86 % 1012,1 hPa 0,0 l/m 0,00 h 0,00 h 0,7 UV-I 276 W/m 19,8 km/h (4 Bft)
09.06.2013 11:00 14,1 C 14,9 C 83 % 1012,0 hPa 0,0 l/m 0,13 h 0,00 h 1,1 UV-I 311 W/m 15,5 km/h (3 Bft)
09.06.2013 12:00 15,3 C 16,5 C 80 % 1011,7 hPa 0,0 l/m 0,20 h 0,00 h 1,7 UV-I 382 W/m 13,6 km/h (3 Bft)
09.06.2013 13:00 16,8 C 18,0 C 77 % 1011,0 hPa 0,0 l/m 0,07 h 0,00 h 2,0 UV-I 379 W/m 11,5 km/h (2 Bft)
09.06.2013 14:00 18,1 C 19,2 C 72 % 1010,6 hPa 0,0 l/m 0,00 h 0,00 h 1,8 UV-I 370 W/m 13,6 km/h (3 Bft)
09.06.2013 15:00 18,6 C 19,5 C 71 % 1010,1 hPa 0,0 l/m 0,00 h 0,00 h 1,3 UV-I 315 W/m 11,5 km/h (2 Bft)
09.06.2013 16:00 19,0 C 19,5 C 70 % 1009,8 hPa 0,0 l/m 0,00 h 0,00 h 0,9 UV-I 231 W/m 7,0 km/h (2 Bft)
09.06.2013 17:00 19,1 C 19,4 C 70 % 1009,4 hPa 0,0 l/m 0,00 h 0,00 h 0,7 UV-I 200 W/m 7,6 km/h (2 Bft)
09.06.2013 18:00 18,5 C 17,8 C 72 % 1009,4 hPa 0,0 l/m 0,00 h 0,00 h 0,0 UV-I 77 W/m 6,0 km/h (2 Bft)
09.06.2013 19:00 18,1 C 17,1 C 75 % 1009,3 hPa 0,0 l/m 0,00 h 0,00 h 0,0 UV-I 52 W/m 0,5 km/h (0 Bft)
09.06.2013 20:00 17,8 C 16,3 C 76 % 1009,5 hPa 0,0 l/m 0,00 h 0,00 h 0,0 UV-I 20 W/m 0,0 km/h (0 Bft)
09.06.2013 21:00 17,4 C 16,0 C 74 % 1009,9 hPa 0,0 l/m 0,00 h 0,00 h 0,0 UV-I 10 W/m 2,2 km/h (1 Bft)
09.06.2013 22:00 16,7 C 15,3 C 72 % 1010,4 hPa 0,0 l/m 0,00 h 0,00 h 0,0 UV-I 0 W/m 10,0 km/h (2 Bft)
09.06.2013 23:00 15,5 C 14,1 C 74 % 1010,5 hPa 0,0 l/m 0,00 h 0,00 h 0,0 UV-I 0 W/m 17,6 km/h (3 Bft)
Min-Datum _ 03.06.13 03.06.13 06.06.13 09.06.13 - - - - - 03.06.13
_ Min-Zeit 06:12 05:10 14:22 19:18 - - - - - 00:00
Minimum _ 5,1 C 3,4 C 43 % 1009,2 hPa - - - - - 0,0 km/h (0 Bft)
Max-Datum _ 07.06.13 06.06.13 09.06.13 03.06.13 09.06.13 03.06.13 04.06.13 03.06.13 03.06.13 08.06.13
_ Max-Zeit 15:50 12:52 07:20 09:58 07:08 10:58 19:22 14:02 14:06 16:28
Maximum _ 27,9 C 35,1 C 95 % 1028,9 hPa 0,2 l/m 0,03 h 0,03 h 5,5 UV-I 1132 W/m 36,0 km/h
NW (5 Bft)
Durchschnitt _ 16,7 C 16,4 C 70 % 1019,1 hPa #0,2 l/m #47:05 h #1:30 h 2,2 UV-I 336 W/m 8,1 km/h (2 Bft)
© 2013 W. Hausmann